Time;durP1;ratioP1;P1;durP2;ratioP2;P2;SDS_P1;SDS_P2;PMS_P1;PMS_P2;Temp;Humidity;BMP_temperature;BMP_pressure;BME280_temperature;BME280_humidity;BME280_pressure;Samples;Min_cycle;Max_cycle;Signal;HPM_P1;HPM_P2
2022/08/17 00:00:21;;;;;;;12.13;6.18;;;;;;;22.60;60.68;100658.19;5030775;28;20086;-85
2022/08/17 00:03:08;;;;;;;10.20;6.03;;;;;;;22.55;61.00;100656.28;5050351;28;20140;-83
2022/08/17 00:05:41;;;;;;;8.75;6.20;;;;;;;22.50;61.18;100654.34;5044454;28;20378;-83
2022/08/17 00:08:07;;;;;;;;;;;;;;;22.45;61.54;100659.56;5044999;28;20028;-83
2022/08/17 00:10:33;;;;;;;7.38;6.50;;;;;;;22.41;61.57;100647.84;5033356;28;19999;-83
2022/08/17 00:13:04;;;;;;;7.97;5.95;;;;;;;22.37;61.66;100654.66;5043850;28;20123;-83
2022/08/17 00:15:30;;;;;;;8.60;6.40;;;;;;;22.34;61.48;100649.84;5039959;28;20028;-83
2022/08/17 00:17:56;;;;;;;11.65;6.60;;;;;;;22.33;61.75;100646.41;5046499;28;20078;-81
2022/08/17 00:20:21;;;;;;;10.15;6.30;;;;;;;22.29;61.86;100649.75;5043821;28;20036;-83
2022/08/17 00:22:46;;;;;;;6.97;6.28;;;;;;;;;;5030320;28;20642;-83
2022/08/17 00:25:15;;;;;;;9.50;6.70;;;;;;;22.24;61.64;100647.00;5029408;28;20036;-83
2022/08/17 00:27:41;;;;;;;8.43;6.25;;;;;;;22.23;61.67;100643.56;5041589;28;20037;-83
2022/08/17 00:30:09;;;;;;;7.63;5.88;;;;;;;22.25;61.51;100643.31;5026035;28;20028;-83
2022/08/17 00:32:40;;;;;;;9.85;6.53;;;;;;;22.22;61.90;100644.56;5044979;28;20039;-83
2022/08/17 00:35:07;;;;;;;8.57;6.00;;;;;;;22.21;61.93;100636.88;5030367;28;21739;-83
2022/08/17 00:37:33;;;;;;;15.98;6.70;;;;;;;22.20;62.34;100637.94;5031786;28;20119;-82
2022/08/17 00:39:59;;;;;;;7.53;6.25;;;;;;;22.15;62.42;100642.09;5027958;28;20039;-83
2022/08/17 00:42:24;;;;;;;7.85;5.97;;;;;;;22.11;62.80;100640.16;5028777;28;21908;-83
2022/08/17 00:44:50;;;;;;;9.10;5.95;;;;;;;22.07;63.08;100634.53;5042598;28;20055;-83
2022/08/17 00:47:15;;;;;;;6.40;5.72;;;;;;;22.04;62.90;100636.84;5028956;28;20028;-83
2022/08/17 00:49:40;;;;;;;6.80;5.93;;;;;;;22.02;63.17;100638.94;5032474;28;20467;-83
2022/08/17 00:52:15;;;;;;;8.52;6.18;;;;;;;21.99;63.50;100631.50;5026112;28;20979;-83
2022/08/17 00:54:43;;;;;;;12.73;6.47;;;;;;;21.94;63.84;100635.66;5026086;28;20028;-83
2022/08/17 00:57:11;;;;;;;6.93;5.88;;;;;;;21.92;63.85;100627.13;5029148;28;20040;-83
2022/08/17 00:59:42;;;;;;;7.93;6.57;;;;;;;21.89;64.00;100629.47;5032511;28;20060;-83
2022/08/17 01:02:11;;;;;;;10.65;6.25;;;;;;;21.86;63.99;100622.81;5029971;28;20914;-83
2022/08/17 01:04:37;;;;;;;9.25;6.50;;;;;;;21.79;64.45;100624.78;5028463;28;20021;-82
2022/08/17 01:07:05;;;;;;;10.55;6.60;;;;;;;21.72;64.54;100622.28;5042131;28;20059;-83
2022/08/17 01:09:31;;;;;;;8.77;7.10;;;;;;;21.70;63.98;100616.44;5045972;28;20036;-82
2022/08/17 01:11:56;;;;;;;10.38;6.93;;;;;;;21.68;64.18;100615.88;5044862;28;20043;-83
2022/08/17 01:14:24;;;;;;;7.15;6.45;;;;;;;21.65;64.42;100610.28;5048141;28;20074;-82
2022/08/17 01:16:53;;;;;;;8.70;6.18;;;;;;;21.63;64.79;100614.97;5024863;28;20033;-83
2022/08/17 01:19:35;;;;;;;7.88;6.53;;;;;;;21.57;64.94;100609.59;5047509;28;20553;-83
2022/08/17 01:22:10;;;;;;;8.63;6.78;;;;;;;21.55;65.07;100619.59;5046286;28;20044;-83
2022/08/17 01:24:55;;;;;;;7.95;7.07;;;;;;;21.53;64.81;100611.09;5039072;28;20039;-82
2022/08/17 01:27:20;;;;;;;9.57;6.63;;;;;;;21.51;64.96;100615.00;5042197;28;20096;-83
2022/08/17 01:29:50;;;;;;;9.45;7.00;;;;;;;21.47;65.10;100613.84;5027829;28;20108;-82
2022/08/17 01:32:16;;;;;;;11.23;7.07;;;;;;;21.43;65.30;100613.50;5040069;28;20043;-83
2022/08/17 01:34:42;;;;;;;10.20;7.13;;;;;;;21.37;65.57;100611.78;5044073;28;20037;-83
2022/08/17 01:37:08;;;;;;;7.70;6.40;;;;;;;21.26;66.03;100602.06;5026259;28;20036;-83
2022/08/17 01:39:48;;;;;;;11.32;7.15;;;;;;;21.11;66.70;100602.53;5032839;28;20481;-83
2022/08/17 01:42:50;;;;;;;8.10;6.72;;;;;;;20.97;67.03;100613.31;5048965;28;20055;-81
2022/08/17 01:45:21;;;;;;;8.95;6.80;;;;;;;20.89;67.43;100599.66;5035418;28;20052;-83
2022/08/17 01:47:49;;;;;;;9.77;7.32;;;;;;;20.87;67.24;100604.38;5025060;28;20214;-83
2022/08/17 01:50:21;;;;;;;9.95;6.97;;;;;;;20.87;67.34;100601.72;5041659;28;20043;-83
2022/08/17 01:52:50;;;;;;;8.15;6.80;;;;;;;20.90;66.98;100599.44;5054874;28;20043;-83
2022/08/17 01:55:19;;;;;;;8.60;7.30;;;;;;;20.91;67.05;100608.97;5046903;28;20036;-83
2022/08/17 01:57:44;;;;;;;9.88;6.68;;;;;;;20.86;67.38;100603.56;5043919;28;20032;-83
2022/08/17 02:00:12;;;;;;;9.43;6.78;;;;;;;20.88;67.16;100611.25;5056193;28;20028;-83
2022/08/17 02:02:39;;;;;;;10.57;7.35;;;;;;;20.83;67.16;100608.50;5046339;28;20103;-83
2022/08/17 02:05:07;;;;;;;9.10;6.90;;;;;;;20.74;67.52;100611.47;5044963;28;20091;-83
2022/08/17 02:07:35;;;;;;;11.23;7.32;;;;;;;20.69;67.61;100613.97;5026556;28;20028;-83
2022/08/17 02:10:02;;;;;;;9.43;7.38;;;;;;;20.63;68.17;100611.47;5049119;28;20016;-83
2022/08/17 02:12:27;;;;;;;8.75;6.78;;;;;;;20.64;67.83;100613.84;5027027;28;20068;-82
2022/08/17 02:14:53;;;;;;;8.85;7.15;;;;;;;20.69;67.86;100607.91;5031665;28;20719;-83
2022/08/17 02:17:18;;;;;;;10.95;6.97;;;;;;;20.70;67.96;100605.06;5046712;28;23012;-83
2022/08/17 02:19:44;;;;;;;9.80;7.22;;;;;;;20.71;67.65;100603.22;5068001;28;20041;-83
2022/08/17 02:22:09;;;;;;;8.68;6.75;;;;;;;20.73;67.81;100601.16;5036487;28;20033;-83
2022/08/17 02:24:36;;;;;;;9.32;6.88;;;;;;;20.73;67.40;100601.16;5029857;28;20637;-83
2022/08/17 02:27:02;;;;;;;7.50;6.60;;;;;;;20.69;67.67;100600.81;5067298;28;20040;-82
2022/08/17 02:29:28;;;;;;;9.98;7.15;;;;;;;20.60;68.20;100602.16;5050199;28;20511;-82
2022/08/17 02:31:53;;;;;;;10.15;7.13;;;;;;;20.48;68.59;100607.41;5067083;28;20036;-83
2022/08/17 02:34:19;;;;;;;11.93;7.35;;;;;;;20.42;69.10;100611.72;5032016;28;20063;-83
2022/08/17 02:36:44;;;;;;;10.38;7.05;;;;;;;20.42;68.86;100614.38;5034902;28;20032;-83
2022/08/17 02:39:11;;;;;;;12.30;7.53;;;;;;;20.45;68.76;100607.03;5035423;28;20401;-83
2022/08/17 02:41:38;;;;;;;11.98;7.40;;;;;;;20.47;68.54;100607.63;5050535;28;20043;-82
2022/08/17 02:44:05;;;;;;;9.10;6.72;;;;;;;20.49;68.52;100602.94;5063961;28;20401;-83
2022/08/17 02:46:31;;;;;;;10.75;7.05;;;;;;;20.42;68.77;100606.47;5067052;28;20439;-83
2022/08/17 02:48:57;;;;;;;9.35;7.15;;;;;;;20.29;69.32;100604.03;5048202;28;20020;-83
2022/08/17 02:51:23;;;;;;;11.13;7.28;;;;;;;20.15;69.51;100605.25;5047606;28;20090;-83
2022/08/17 02:53:48;;;;;;;11.77;8.07;;;;;;;20.11;69.51;100607.50;5041966;28;20032;-83
2022/08/17 02:56:14;;;;;;;12.20;7.43;;;;;;;20.12;69.08;100603.06;5032609;28;20029;-81
2022/08/17 02:58:39;;;;;;;8.63;6.45;;;;;;;20.18;68.58;100604.81;5051700;28;20040;-83
2022/08/17 03:01:07;;;;;;;11.13;7.78;;;;;;;20.22;68.27;100608.59;5035579;28;20032;-83
2022/08/17 03:03:33;;;;;;;11.55;7.25;;;;;;;20.24;68.25;100606.53;5046193;28;20037;-83
2022/08/17 03:06:00;;;;;;;9.95;7.40;;;;;;;20.24;68.11;100598.63;5033941;28;20033;-82
2022/08/17 03:08:26;;;;;;;8.52;6.80;;;;;;;20.19;68.28;100596.69;5037198;28;20731;-83
2022/08/17 03:10:51;;;;;;;8.20;6.80;;;;;;;20.17;68.60;100596.13;5051375;28;20028;-82
2022/08/17 03:13:17;;;;;;;10.88;7.05;;;;;;;20.16;68.52;100594.50;5050437;28;20077;-82
2022/08/17 03:15:44;;;;;;;8.38;7.05;;;;;;;20.16;68.70;100588.44;5044034;28;20099;-83
2022/08/17 03:18:12;;;;;;;8.07;6.72;;;;;;;20.14;68.81;100593.91;5065247;28;20429;-82
2022/08/17 03:20:38;;;;;;;13.88;6.78;;;;;;;20.16;68.24;100589.22;5049349;28;20043;-83
2022/08/17 03:23:03;;;;;;;8.73;6.80;;;;;;;20.17;67.96;100596.13;5037236;28;20477;-83
2022/08/17 03:25:36;;;;;;;10.35;7.55;;;;;;;20.18;68.20;100589.81;5049569;28;20024;-83
2022/08/17 03:28:02;;;;;;;13.25;7.00;;;;;;;20.16;68.34;100583.97;5050510;28;20045;-83
2022/08/17 03:30:29;;;;;;;9.13;6.78;;;;;;;20.14;68.44;100582.59;5062266;28;20028;-83
2022/08/17 03:32:56;;;;;;;9.10;7.03;;;;;;;20.13;68.32;100579.13;5050331;28;21897;-82
2022/08/17 03:35:29;;;;;;;9.45;6.43;;;;;;;20.14;68.30;100588.66;5028061;28;20044;-83
2022/08/17 03:37:56;;;;;;;9.95;6.40;;;;;;;20.17;67.54;100587.38;5032838;28;20064;-82
2022/08/17 03:40:21;;;;;;;9.20;6.40;;;;;;;20.19;67.80;100590.59;5051605;28;20037;-83
2022/08/17 03:42:47;;;;;;;8.43;6.28;;;;;;;20.19;67.96;100586.16;5034171;28;20061;-82
2022/08/17 03:45:16;;;;;;;10.68;7.22;;;;;;;20.18;67.84;100589.00;5049052;28;20032;-83
2022/08/17 03:58:54;;;;;;;9.75;5.25;;;;;;;20.15;66.58;100594.72;5060284;28;20497;-82
2022/08/17 04:01:19;;;;;;;13.45;6.55;;;;;;;20.18;66.28;100595.06;5033685;28;20039;-81
2022/08/17 04:03:44;;;;;;;8.65;5.50;;;;;;;20.20;65.60;100595.66;5031551;28;20940;-82
2022/08/17 04:06:10;;;;;;;10.75;6.43;;;;;;;20.13;66.07;100597.56;5031982;28;20029;-82
2022/08/17 04:08:35;;;;;;;10.95;6.50;;;;;;;20.29;65.58;100598.78;5065195;28;20063;-82
2022/08/17 04:11:01;;;;;;;11.15;5.88;;;;;;;20.20;65.68;100603.53;5047164;28;20036;-83
2022/08/17 04:13:29;;;;;;;13.05;6.53;;;;;;;20.18;65.50;100602.16;5066821;28;20684;-83
2022/08/17 04:15:56;;;;;;;7.57;5.20;;;;;;;20.11;65.81;100602.25;5048564;28;20028;-83
2022/08/17 04:18:21;;;;;;;10.98;6.18;;;;;;;20.12;66.29;100606.50;5047125;28;20033;-81
2022/08/17 04:20:46;;;;;;;8.20;5.32;;;;;;;20.10;66.10;100618.25;5031242;28;20917;-82
2022/08/17 04:23:15;;;;;;;8.38;4.78;;;;;;;20.11;66.18;100619.88;5044730;28;20032;-82
2022/08/17 04:25:49;;;;;;;10.02;5.50;;;;;;;20.10;67.21;100623.53;5046110;28;20079;-82
2022/08/17 04:28:16;;;;;;;6.45;5.18;;;;;;;20.11;66.91;100620.66;5044974;28;20027;-83
2022/08/17 04:30:43;;;;;;;7.68;5.50;;;;;;;20.11;66.74;100619.88;5028650;28;20059;-83
2022/08/17 04:33:16;;;;;;;10.40;5.45;;;;;;;20.09;66.81;100622.72;5027559;28;20614;-83
2022/08/17 04:35:44;;;;;;;7.53;5.28;;;;;;;20.09;66.87;100614.84;5046398;28;20054;-81
2022/08/17 04:38:16;;;;;;;8.07;5.40;;;;;;;20.03;67.24;100613.91;5059993;28;20036;-83
2022/08/17 04:43:28;;;;;;;6.97;4.97;;;;;;;20.02;67.63;100627.28;5045998;28;20020;-83
2022/08/17 04:46:00;;;;;;;8.00;4.65;;;;;;;20.04;67.33;100635.75;5046181;28;20122;-82
2022/08/17 04:48:28;;;;;;;6.18;4.95;;;;;;;20.04;66.99;100625.22;5046383;28;20592;-83
2022/08/17 04:50:54;;;;;;;13.18;6.05;;;;;;;20.06;66.85;100627.63;5047559;28;20040;-83
2022/08/17 04:53:20;;;;;;;11.65;4.90;;;;;;;20.08;67.04;100628.22;5031952;28;20036;-82
2022/08/17 04:55:47;;;;;;;7.72;4.78;;;;;;;20.06;67.02;100625.81;5047845;28;20116;-82
2022/08/17 04:58:13;;;;;;;8.77;4.38;;;;;;;20.08;66.99;100626.41;5032902;28;20056;-82
2022/08/17 05:00:39;;;;;;;6.30;4.60;;;;;;;20.10;66.86;100631.41;5049467;28;20029;-83
2022/08/17 05:03:05;;;;;;;8.68;4.93;;;;;;;20.16;66.26;100626.06;5036700;28;20032;-82
2022/08/17 05:05:35;;;;;;;7.95;5.20;;;;;;;20.28;65.37;100627.94;5037230;28;20139;-83
2022/08/17 05:08:02;;;;;;;13.05;5.97;;;;;;;20.34;65.06;100627.88;5026711;28;20213;-83
2022/08/17 05:10:30;;;;;;;7.63;5.43;;;;;;;20.35;64.94;100626.03;5044789;28;20021;-83
2022/08/17 05:13:03;;;;;;;10.90;5.60;;;;;;;20.36;64.90;100627.63;5049923;28;20029;-81
2022/08/17 05:15:29;;;;;;;;;;;;;;;20.50;64.35;100629.03;5047332;28;20052;-83
2022/08/17 05:17:55;;;;;;;9.45;5.63;;;;;;;20.41;64.35;100649.63;5026596;28;19967;-82
2022/08/17 05:20:21;;;;;;;10.07;5.13;;;;;;;20.55;65.01;100681.03;5030942;28;20040;-83
2022/08/17 05:22:57;;;;;;;12.95;4.82;;;;;;;20.58;65.05;100672.69;5060648;28;20043;-82
2022/08/17 05:25:26;;;;;;;11.57;5.80;;;;;;;20.45;65.50;100664.97;5045698;28;20037;-82
2022/08/17 05:27:53;;;;;;;13.60;6.13;;;;;;;20.60;65.11;100662.75;5046040;28;20041;-82
2022/08/17 05:30:19;;;;;;;16.95;5.80;;;;;;;20.53;65.68;100654.09;5031369;28;20029;-82
2022/08/17 05:32:58;;;;;;;10.00;5.82;;;;;;;20.52;65.94;100660.41;5038867;28;20512;-83
2022/08/17 05:35:25;;;;;;;11.85;6.22;;;;;;;20.49;66.34;100659.03;5030071;28;20028;-82
2022/08/17 05:37:50;;;;;;;10.60;6.65;;;;;;;20.56;66.07;100661.56;5034686;28;20035;-83
2022/08/17 05:40:16;;;;;;;15.15;6.90;;;;;;;20.66;65.99;100672.38;5033222;28;20759;-82
2022/08/17 05:42:42;;;;;;;13.30;6.18;;;;;;;20.72;65.64;100681.22;5036261;28;20074;-83
2022/08/17 05:45:09;;;;;;;12.43;6.20;;;;;;;20.76;65.80;100683.19;5045945;28;20036;-83
2022/08/17 05:47:37;;;;;;;13.93;5.35;;;;;;;20.80;65.47;100680.91;5026361;28;20120;-82
2022/08/17 05:50:05;;;;;;;17.08;6.95;;;;;;;20.88;65.44;100687.66;5033766;28;20063;-84
2022/08/17 05:52:50;;;;;;;17.52;6.90;;;;;;;20.88;66.32;100692.94;5051759;28;20039;-82
2022/08/17 05:55:34;;;;;;;13.30;6.35;;;;;;;20.92;65.96;100691.44;5034708;28;20056;-83
2022/08/17 05:58:30;;;;;;;14.32;6.72;;;;;;;20.94;65.84;100689.38;5050651;28;20047;-83
2022/08/17 06:01:33;;;;;;;15.15;6.07;;;;;;;21.02;65.04;100686.44;5009380;28;20047;-83
2022/08/17 06:04:20;;;;;;;10.93;5.50;;;;;;;21.05;65.13;100683.31;5062059;28;20036;-82
2022/08/17 06:06:56;;;;;;;11.65;6.28;;;;;;;21.14;65.24;100671.41;5050659;28;20036;-82
2022/08/17 06:09:31;;;;;;;10.60;5.88;;;;;;;21.22;65.15;100666.84;5037330;28;20020;-82
2022/08/17 06:12:02;;;;;;;16.02;7.47;;;;;;;21.30;65.94;100659.34;5048290;28;20141;-82
2022/08/17 06:14:33;;;;;;;11.95;7.13;;;;;;;21.54;64.39;100664.66;5053328;28;20066;-84
2022/08/17 06:17:07;;;;;;;12.43;7.15;;;;;;;21.57;64.74;100666.84;5051119;28;20060;-79
2022/08/17 06:19:46;;;;;;;11.65;6.22;;;;;;;21.70;65.05;100668.41;5047014;28;20044;-82
2022/08/17 06:22:15;;;;;;;16.48;7.30;;;;;;;21.78;64.69;100666.19;5046137;28;20032;-83
2022/08/17 06:24:53;;;;;;;16.98;6.60;;;;;;;21.82;65.21;100668.38;5035808;28;20024;-83
2022/08/17 06:27:39;;;;;;;12.98;7.40;;;;;;;21.92;64.80;100666.72;5047104;28;20079;-83
2022/08/17 06:30:08;;;;;;;9.98;6.60;;;;;;;21.96;64.74;100664.44;5052736;28;20037;-83
2022/08/17 06:32:37;;;;;;;12.57;7.25;;;;;;;22.05;64.42;100663.03;5050934;28;20036;-82
2022/08/17 06:35:06;;;;;;;15.60;7.30;;;;;;;22.00;65.13;100656.84;5057613;28;20045;-84
2022/08/17 06:37:42;;;;;;;14.77;7.30;;;;;;;21.94;65.23;100653.31;5066459;28;20044;-83
2022/08/17 06:40:29;;;;;;;11.60;7.93;;;;;;;22.00;64.92;100651.56;5038881;28;20029;-84
2022/08/17 06:43:13;;;;;;;15.85;7.20;;;;;;;21.96;65.21;100665.25;5038488;28;20040;-84
2022/08/17 06:45:47;;;;;;;14.57;8.07;;;;;;;21.91;65.66;100672.25;5055920;28;20043;-83
2022/08/17 06:48:45;;;;;;;20.58;9.48;;;;;;;21.88;65.79;100675.38;5032603;28;20042;-82
2022/08/17 06:51:26;;;;;;;13.80;8.93;;;;;;;21.96;65.81;100680.25;5030914;28;20129;-82
2022/08/17 06:53:59;;;;;;;13.00;7.85;;;;;;;21.84;66.02;100696.13;5044503;28;20202;-84
2022/08/17 06:56:34;;;;;;;17.85;8.10;;;;;;;21.93;66.52;100691.31;5033394;28;20043;-83
2022/08/17 06:59:01;;;;;;;12.85;7.72;;;;;;;21.90;66.34;100692.56;5051416;28;20166;-84
2022/08/17 07:01:34;;;;;;;16.08;8.32;;;;;;;22.02;66.29;100689.91;5048541;28;20063;-82
2022/08/17 07:04:06;;;;;;;13.10;8.88;;;;;;;22.09;66.30;100687.13;5027780;28;20044;-84
2022/08/17 07:06:37;;;;;;;13.02;9.00;;;;;;;22.10;65.95;100678.97;5049478;28;20099;-84
2022/08/17 07:09:09;;;;;;;14.20;8.18;;;;;;;22.06;66.62;100683.13;5035499;28;20029;-82
2022/08/17 07:11:51;;;;;;;18.20;8.80;;;;;;;22.09;66.77;100703.75;5051478;28;20079;-86
2022/08/17 07:14:36;;;;;;;11.07;7.30;;;;;;;22.06;67.02;100701.59;5050013;28;20043;-84
2022/08/17 07:17:14;;;;;;;10.95;8.30;;;;;;;22.13;66.47;100696.97;5034142;28;20070;-83
2022/08/17 07:19:44;;;;;;;15.05;8.90;;;;;;;22.19;66.78;100695.25;5052344;28;20028;-85
2022/08/17 07:22:15;;;;;;;11.35;8.20;;;;;;;22.16;66.78;100708.91;5045729;28;20033;-83
2022/08/17 07:24:59;;;;;;;12.43;9.15;;;;;;;22.15;66.76;100710.75;5032513;28;20436;-83
2022/08/17 07:27:38;;;;;;;12.65;9.00;;;;;;;22.25;66.85;100711.97;5034792;28;20786;-83
2022/08/17 07:30:50;;;;;;;12.50;8.55;;;;;;;22.27;66.89;100710.72;5033046;28;20413;-83
2022/08/17 07:33:27;;;;;;;14.93;9.70;;;;;;;22.37;66.44;100715.38;5033876;28;20101;-84
2022/08/17 07:35:53;;;;;;;16.67;9.68;;;;;;;22.41;66.39;100716.50;5058038;28;20040;-82
2022/08/17 07:38:26;;;;;;;17.67;10.90;;;;;;;22.34;66.69;100714.03;5051967;28;20103;-85
2022/08/17 07:40:56;;;;;;;13.90;10.10;;;;;;;22.55;66.32;100712.56;5029066;28;20040;-84
2022/08/17 07:43:26;;;;;;;19.75;10.88;;;;;;;22.54;66.42;100708.28;5054182;28;20059;-84
2022/08/17 07:48:48;;;;;;;18.98;11.80;;;;;;;22.67;66.87;100699.28;5042463;28;20041;-84
2022/08/17 07:51:35;;;;;;;21.00;12.48;;;;;;;22.70;66.36;100712.03;5030842;28;20112;-84
2022/08/17 07:54:21;;;;;;;18.60;11.25;;;;;;;22.74;66.19;100720.28;5028672;28;20036;-84
2022/08/17 07:56:52;;;;;;;17.75;11.75;;;;;;;22.79;66.81;100727.47;5032050;28;20036;-83
2022/08/17 07:59:32;;;;;;;15.75;12.88;;;;;;;22.85;66.41;100726.50;5049390;28;20032;-81
2022/08/17 08:02:01;;;;;;;16.73;13.00;;;;;;;22.79;66.31;100724.81;5044927;28;20037;-83
2022/08/17 08:05:11;;;;;;;15.43;13.15;;;;;;;22.63;66.82;100727.22;5027170;28;20024;-81
2022/08/17 08:07:53;;;;;;;24.20;14.23;;;;;;;22.70;66.75;100733.16;5034521;28;20032;-83
2022/08/17 08:10:31;;;;;;;23.77;16.38;;;;;;;22.83;66.14;100742.63;5051079;28;20727;-82
2022/08/17 08:13:05;;;;;;;19.83;13.85;;;;;;;22.74;66.98;100742.22;5048108;28;20044;-83
2022/08/17 08:15:38;;;;;;;15.80;12.60;;;;;;;22.72;67.08;100736.34;5044904;28;20665;-82
2022/08/17 08:18:23;;;;;;;17.92;12.07;;;;;;;22.75;66.95;100748.28;5052565;28;20028;-82
2022/08/17 08:21:03;;;;;;;19.90;14.70;;;;;;;22.87;66.88;100746.41;5015476;28;20036;-83
2022/08/17 08:23:35;;;;;;;21.05;13.82;;;;;;;22.94;66.45;100748.88;5050195;28;20056;-82
2022/08/17 08:26:19;;;;;;;24.80;15.37;;;;;;;22.94;66.37;100754.97;5046771;28;20481;-82
2022/08/17 08:29:07;;;;;;;21.90;16.52;;;;;;;22.92;66.45;100754.41;5050055;28;20037;-81
2022/08/17 08:31:50;;;;;;;29.48;20.33;;;;;;;22.84;66.56;100746.84;5032671;28;20044;-82
2022/08/17 08:34:29;;;;;;;23.27;17.75;;;;;;;22.74;67.10;100758.06;5027681;28;20086;-83
2022/08/17 08:37:17;;;;;;;26.40;18.70;;;;;;;22.84;67.21;100761.94;5041594;28;20016;-82
2022/08/17 08:40:31;;;;;;;28.67;19.13;;;;;;;22.87;67.03;100766.75;5048282;28;20040;-82
2022/08/17 08:43:06;;;;;;;24.52;17.63;;;;;;;22.84;67.19;100757.44;5010440;28;20051;-80
2022/08/17 08:46:06;;;;;;;33.08;18.45;;;;;;;22.85;66.78;100755.59;5044008;28;20771;-82
2022/08/17 08:49:26;;;;;;;25.38;18.02;;;;;;;22.92;66.53;100758.88;5031024;28;20971;-82
2022/08/17 08:51:54;;;;;;;25.35;17.17;;;;;;;22.92;67.03;100764.16;5006776;28;20029;-83
2022/08/17 08:54:37;;;;;;;23.40;16.80;;;;;;;22.98;66.46;100759.75;5043654;28;20048;-82
2022/08/17 08:57:17;;;;;;;22.00;16.67;;;;;;;23.01;65.09;100759.28;5045817;28;20131;-82
2022/08/17 08:59:52;;;;;;;21.38;15.77;;;;;;;23.00;65.62;100765.63;5048897;28;20107;-82
2022/08/17 09:02:40;;;;;;;30.00;18.08;;;;;;;22.94;66.14;100767.38;5060773;28;20128;-81
2022/08/17 09:05:19;;;;;;;23.50;17.90;;;;;;;23.01;66.29;100772.50;5016400;28;20106;-82
2022/08/17 09:08:11;;;;;;;24.67;16.98;;;;;;;23.10;66.37;100779.03;5047146;28;20036;-81
2022/08/17 09:11:04;;;;;;;23.55;16.48;;;;;;;23.06;66.17;100778.72;5064923;28;20028;-82
2022/08/17 09:13:48;;;;;;;22.65;18.23;;;;;;;23.26;66.13;100778.25;5052525;28;20028;-83
2022/08/17 09:16:28;;;;;;;24.00;16.23;;;;;;;23.25;66.19;100776.63;5049608;28;20538;-81
2022/08/17 09:19:01;;;;;;;24.52;16.27;;;;;;;23.18;66.84;100776.00;5046980;28;20111;-83
2022/08/17 09:21:46;;;;;;;;;;;;;;;23.18;66.62;100778.63;5030818;28;20139;-81
2022/08/17 09:24:31;;;;;;;22.85;17.33;;;;;;;23.09;67.20;100775.59;5007460;28;19916;-82
2022/08/17 09:27:21;;;;;;;26.20;18.05;;;;;;;23.05;67.73;100779.75;5048734;28;20033;-82
2022/08/17 09:29:56;;;;;;;20.30;15.20;;;;;;;22.96;67.68;100783.78;5071211;28;20057;-81
2022/08/17 09:32:41;;;;;;;24.67;16.27;;;;;;;23.01;67.16;100775.16;5068469;28;20032;-82
2022/08/17 09:35:18;;;;;;;28.33;17.30;;;;;;;23.08;67.09;100768.69;5050705;28;20449;-81
2022/08/17 09:38:22;;;;;;;23.35;15.95;;;;;;;23.08;67.11;100774.00;5036997;28;20036;-83
2022/08/17 09:41:09;;;;;;;24.98;15.07;;;;;;;23.10;67.19;100777.19;5048298;28;20033;-82
2022/08/17 09:43:41;;;;;;;25.52;17.27;;;;;;;23.04;66.91;100778.16;5048869;28;20024;-81
2022/08/17 09:46:25;;;;;;;22.45;14.23;;;;;;;22.99;66.77;100775.41;5029216;28;20044;-80
2022/08/17 09:48:55;;;;;;;21.35;14.93;;;;;;;22.92;67.12;100780.84;5053826;28;20082;-83
2022/08/17 09:51:30;;;;;;;19.48;14.35;;;;;;;22.86;67.27;100783.63;5068487;28;20040;-83
2022/08/17 09:53:57;;;;;;;18.65;13.63;;;;;;;22.88;67.33;100792.13;5046037;28;20059;-83
2022/08/17 09:56:51;;;;;;;27.35;15.35;;;;;;;23.01;68.39;100775.94;5029749;28;20032;-82
2022/08/17 09:59:46;;;;;;;22.90;16.73;;;;;;;23.03;69.45;100778.38;5050958;28;20099;-83
2022/08/17 10:02:56;;;;;;;27.23;19.17;;;;;;;22.92;70.16;100775.56;5049246;28;20121;-83
2022/08/17 10:05:50;;;;;;;24.48;16.05;;;;;;;22.89;70.99;100776.03;5044384;28;20046;-79
2022/08/17 10:08:27;;;;;;;20.98;16.25;;;;;;;22.78;71.74;100770.81;5066145;28;20051;-83
2022/08/17 10:11:04;;;;;;;20.33;16.50;;;;;;;22.81;72.07;100776.44;5033445;28;20032;-81
2022/08/17 10:13:46;;;;;;;21.63;16.90;;;;;;;22.78;71.33;100784.81;5050698;28;20029;-82
2022/08/17 10:16:24;;;;;;;23.85;16.80;;;;;;;22.77;71.62;100785.06;5051893;28;20682;-82
2022/08/17 10:19:15;;;;;;;22.58;17.70;;;;;;;22.69;70.29;100788.88;5053086;28;20163;-81
2022/08/17 10:27:50;;;;;;;26.83;18.00;;;;;;;22.45;71.28;100799.56;5043551;28;20016;-83
2022/08/17 10:30:18;;;;;;;30.85;19.05;;;;;;;22.41;72.42;100813.44;5045917;28;20036;-85
2022/08/17 10:32:54;;;;;;;23.45;17.05;;;;;;;22.29;72.81;100802.94;5035292;28;20024;-83
2022/08/17 10:35:24;;;;;;;21.85;17.25;;;;;;;22.26;73.92;100812.09;5042518;28;20040;-83
2022/08/17 10:38:05;;;;;;;21.27;15.43;;;;;;;22.22;74.37;100812.78;5049236;28;20529;-82
2022/08/17 10:40:44;;;;;;;22.38;17.45;;;;;;;22.19;75.08;100819.34;5047769;28;20067;-84
2022/08/17 10:43:56;;;;;;;22.60;14.93;;;;;;;22.14;75.46;100832.44;5052443;28;20404;-84
2022/08/17 10:47:00;;;;;;;23.50;16.05;;;;;;;21.98;77.84;100839.19;5015370;28;20043;-84
2022/08/17 10:49:31;;;;;;;;;;;;;;;22.03;78.38;100849.09;5047940;28;20505;-84
2022/08/17 10:52:00;;;;;;;21.98;16.55;;;;;;;21.96;78.42;100843.91;5051966;28;20507;-83
2022/08/17 10:54:44;;;;;;;22.90;15.80;;;;;;;21.69;80.26;100844.38;5048045;28;20039;-85
2022/08/17 10:57:32;;;;;;;20.15;15.32;;;;;;;21.60;81.80;100834.41;5050674;28;20049;-84
2022/08/17 11:00:14;;;;;;;22.40;16.05;;;;;;;21.51;82.93;100821.56;5032146;28;20039;-81
2022/08/17 11:02:49;;;;;;;21.75;16.52;;;;;;;21.42;84.55;100809.69;5055854;28;20033;-84
2022/08/17 11:05:21;;;;;;;24.67;16.92;;;;;;;21.37;84.57;100802.44;5030939;28;20033;-84
2022/08/17 11:08:24;;;;;;;24.65;18.25;;;;;;;21.31;85.45;100798.09;5027590;28;20688;-83
2022/08/17 11:11:10;;;;;;;31.98;18.85;;;;;;;21.44;85.88;100794.47;5054545;28;20028;-84
2022/08/17 11:14:15;;;;;;;24.92;17.25;;;;;;;21.36;86.69;100784.22;5035322;28;20067;-84
2022/08/17 11:17:04;;;;;;;23.65;18.30;;;;;;;21.28;87.66;100779.28;5034257;28;20037;-83
2022/08/17 11:19:54;;;;;;;26.25;18.80;;;;;;;21.22;87.20;100770.44;5037379;28;20045;-83
2022/08/17 11:22:48;;;;;;;29.48;18.75;;;;;;;21.13;88.38;100771.81;5053872;28;20490;-83
2022/08/17 11:25:17;;;;;;;29.92;20.00;;;;;;;21.24;89.06;100781.56;5045867;28;20025;-82
2022/08/17 11:27:52;;;;;;;26.77;21.48;;;;;;;21.41;89.71;100786.97;5031635;28;20052;-82
2022/08/17 11:30:47;;;;;;;27.25;20.50;;;;;;;21.36;90.02;100784.22;5033767;28;20790;-83
2022/08/17 11:33:27;;;;;;;30.25;21.05;;;;;;;21.27;89.38;100773.22;5020010;28;20040;-84
2022/08/17 11:36:02;;;;;;;26.83;20.92;;;;;;;21.22;89.73;100783.63;5047987;28;20486;-82
2022/08/17 11:38:50;;;;;;;31.10;21.45;;;;;;;21.17;90.48;100775.59;5065018;28;20039;-84
2022/08/17 11:41:48;;;;;;;29.35;22.08;;;;;;;21.17;89.97;100780.88;5031058;28;20041;-84
2022/08/17 11:44:36;;;;;;;31.25;22.40;;;;;;;21.09;90.95;100791.75;5049550;28;20059;-84
2022/08/17 11:53:36;;;;;;;34.25;24.67;;;;;;;21.00;91.62;100812.34;5048784;28;20039;-84
2022/08/17 11:56:30;;;;;;;33.60;22.95;;;;;;;21.05;91.60;100806.41;5032566;28;20040;-83
2022/08/17 11:58:57;;;;;;;31.15;22.88;;;;;;;21.03;91.92;100808.47;5048715;28;20033;-85
2022/08/17 12:01:27;;;;;;;27.30;20.90;;;;;;;21.03;92.29;100821.66;5033586;28;20047;-85
2022/08/17 12:03:59;;;;;;;30.95;24.30;;;;;;;20.98;92.35;100825.78;5024562;28;20040;-84
2022/08/17 12:06:33;;;;;;;31.45;24.88;;;;;;;20.99;92.52;100835.25;5050081;28;20127;-85
2022/08/17 12:09:12;;;;;;;32.90;23.65;;;;;;;21.09;92.27;100840.00;5050898;28;20029;-84
2022/08/17 12:11:44;;;;;;;31.63;24.25;;;;;;;21.07;92.76;100843.88;5045818;28;20056;-85
2022/08/17 12:14:15;;;;;;;36.00;25.05;;;;;;;21.09;92.81;100844.47;5034240;28;20044;-83
2022/08/17 12:16:42;;;;;;;36.38;27.13;;;;;;;21.16;92.12;100847.81;5059144;28;20105;-85
2022/08/17 12:19:22;;;;;;;37.08;25.35;;;;;;;21.03;92.88;100842.72;5040471;28;20028;-84
2022/08/17 12:21:53;;;;;;;30.50;23.27;;;;;;;20.98;93.55;100849.47;5049682;28;20475;-85